createdAt,value
2023-08-22T00:01:28.114Z,17.69
2023-08-22T00:03:58.086Z,17.67
2023-08-22T00:06:25.370Z,17.65
2023-08-22T00:08:51.913Z,17.67
2023-08-22T00:11:18.415Z,17.69
2023-08-22T00:13:44.905Z,17.63
2023-08-22T00:16:11.451Z,17.69
2023-08-22T00:18:37.958Z,17.59
2023-08-22T00:21:04.939Z,17.41
2023-08-22T00:23:31.490Z,17.58
2023-08-22T00:25:57.975Z,17.46
2023-08-22T00:28:24.547Z,17.70
2023-08-22T00:30:53.464Z,17.66
2023-08-22T00:33:19.974Z,17.30
2023-08-22T00:35:46.551Z,17.46
2023-08-22T00:38:13.053Z,17.49
2023-08-22T00:40:39.537Z,17.46
2023-08-22T00:43:06.030Z,17.34
2023-08-22T00:45:32.610Z,17.43
2023-08-22T00:47:59.159Z,17.44
2023-08-22T00:50:25.746Z,17.44
2023-08-22T00:52:52.309Z,17.45
2023-08-22T00:55:19.002Z,17.41
2023-08-22T00:57:45.516Z,17.46
2023-08-22T01:00:12.188Z,17.49
2023-08-22T01:02:40.202Z,17.42
2023-08-22T01:05:07.330Z,17.44
2023-08-22T01:07:38.463Z,17.45
2023-08-22T01:10:12.705Z,17.52
2023-08-22T01:13:03.617Z,17.41
2023-08-22T01:15:30.606Z,17.49
2023-08-22T01:17:58.087Z,17.41
2023-08-22T01:20:26.154Z,17.38
2023-08-22T01:22:52.745Z,17.44
2023-08-22T01:25:19.659Z,17.36
2023-08-22T01:28:00.320Z,17.28
2023-08-22T01:30:33.270Z,17.15
2023-08-22T01:33:05.020Z,17.28
2023-08-22T01:35:32.497Z,17.23
2023-08-22T01:37:59.055Z,17.15
2023-08-22T01:40:25.844Z,17.19
2023-08-22T01:42:52.392Z,17.18
2023-08-22T01:45:18.886Z,17.10
2023-08-22T01:47:45.383Z,17.09
2023-08-22T01:50:12.174Z,17.15
2023-08-22T01:52:38.719Z,17.08
2023-08-22T01:55:05.531Z,17.03
2023-08-22T01:57:32.035Z,16.88
2023-08-22T01:59:59.403Z,17.00
2023-08-22T02:02:26.015Z,16.75
2023-08-22T02:04:52.668Z,17.00
2023-08-22T02:07:19.119Z,16.91
2023-08-22T02:09:45.623Z,17.03
2023-08-22T02:12:12.116Z,17.00
2023-08-22T02:14:38.582Z,16.94
2023-08-22T02:17:05.163Z,17.06
2023-08-22T02:19:31.672Z,16.95
2023-08-22T02:21:58.154Z,16.96
2023-08-22T02:24:24.658Z,16.93
2023-08-22T02:26:51.192Z,17.02
2023-08-22T02:29:17.732Z,16.98
2023-08-22T02:31:44.407Z,16.96
2023-08-22T02:34:10.939Z,16.83
2023-08-22T02:36:37.435Z,16.93
2023-08-22T02:39:04.816Z,16.67
2023-08-22T02:41:31.343Z,16.85
2023-08-22T02:43:57.914Z,16.93
2023-08-22T02:46:24.403Z,16.89
2023-08-22T02:48:50.946Z,16.71
2023-08-22T02:51:17.490Z,16.76
2023-08-22T02:53:43.992Z,16.68
2023-08-22T02:56:11.522Z,16.73
2023-08-22T02:58:38.022Z,16.65
2023-08-22T03:01:08.154Z,16.63
2023-08-22T03:03:34.852Z,16.60
2023-08-22T03:06:01.795Z,16.57
2023-08-22T03:08:28.390Z,16.51
2023-08-22T03:10:59.788Z,16.57
2023-08-22T03:13:26.272Z,16.37
2023-08-22T03:15:53.713Z,16.47
2023-08-22T03:18:20.358Z,16.48
2023-08-22T03:20:47.149Z,16.38
2023-08-22T03:23:15.237Z,16.48
2023-08-22T03:25:41.754Z,16.45
2023-08-22T03:28:08.234Z,16.50
2023-08-22T03:30:34.750Z,16.48
2023-08-22T03:33:01.289Z,16.47
2023-08-22T03:35:27.852Z,16.28
2023-08-22T03:37:54.355Z,16.35
2023-08-22T03:40:20.882Z,16.32
2023-08-22T03:42:47.337Z,16.18
2023-08-22T03:45:13.836Z,16.25
2023-08-22T03:47:40.615Z,16.11
2023-08-22T03:50:07.582Z,16.07
2023-08-22T03:52:34.086Z,16.02
2023-08-22T03:55:00.646Z,16.07
2023-08-22T03:57:27.212Z,16.15
2023-08-22T03:59:53.865Z,16.08
2023-08-22T04:02:20.419Z,16.11
2023-08-22T04:04:46.923Z,16.02
2023-08-22T04:07:13.443Z,15.97
2023-08-22T04:09:40.009Z,15.98
2023-08-22T04:12:06.789Z,15.93
2023-08-22T04:14:33.283Z,16.11
2023-08-22T04:16:59.807Z,16.06
2023-08-22T04:19:26.355Z,16.07
2023-08-22T04:21:53.024Z,16.00
2023-08-22T04:24:19.547Z,15.84
2023-08-22T04:26:46.420Z,15.97
2023-08-22T04:29:13.475Z,15.89
2023-08-22T04:31:39.964Z,15.94
2023-08-22T04:34:06.451Z,15.87
2023-08-22T04:36:32.972Z,15.81
2023-08-22T04:38:59.498Z,15.89
2023-08-22T04:41:26.010Z,15.86
2023-08-22T04:43:52.514Z,15.92
2023-08-22T04:46:19.242Z,15.95
2023-08-22T04:48:45.803Z,15.93
2023-08-22T04:51:12.313Z,16.01
2023-08-22T04:53:38.804Z,15.89
2023-08-22T04:56:05.301Z,15.94
2023-08-22T04:58:31.931Z,16.04
2023-08-22T05:00:58.562Z,15.97
2023-08-22T05:03:25.336Z,16.00
2023-08-22T05:05:51.868Z,15.79
2023-08-22T05:08:19.021Z,15.97
2023-08-22T05:10:45.634Z,15.97
2023-08-22T05:13:12.180Z,16.02
2023-08-22T05:15:38.663Z,16.08
2023-08-22T05:18:05.329Z,16.14
2023-08-22T05:20:31.861Z,16.12
2023-08-22T05:22:58.336Z,16.08
2023-08-22T05:25:24.839Z,15.99
2023-08-22T05:27:51.347Z,16.12
2023-08-22T05:30:18.484Z,16.10
2023-08-22T05:32:45.164Z,16.31
2023-08-22T05:35:11.705Z,16.44
2023-08-22T05:37:38.320Z,16.24
2023-08-22T05:40:07.480Z,16.45
2023-08-22T05:42:34.138Z,16.52
2023-08-22T05:45:00.649Z,16.51
2023-08-22T05:47:27.125Z,16.59
2023-08-22T05:49:53.645Z,16.66
2023-08-22T05:52:20.485Z,16.73
2023-08-22T05:54:47.045Z,16.73
2023-08-22T05:57:13.555Z,16.77
2023-08-22T05:59:40.028Z,16.83
2023-08-22T06:02:06.819Z,16.96
2023-08-22T06:04:33.355Z,16.95
2023-08-22T06:06:59.843Z,16.98
2023-08-22T06:09:26.337Z,17.13
2023-08-22T06:11:52.853Z,17.17
2023-08-22T06:14:19.349Z,17.28
2023-08-22T06:16:45.862Z,17.28
2023-08-22T06:19:12.367Z,17.30
2023-08-22T06:21:38.871Z,17.59
2023-08-22T06:24:05.906Z,18.36
2023-08-22T06:26:32.451Z,18.51
2023-08-22T06:28:59.262Z,18.54
2023-08-22T06:31:25.821Z,18.70
2023-08-22T06:33:52.411Z,18.75
2023-08-22T06:36:19.045Z,18.80
2023-08-22T06:38:45.682Z,18.86
2023-08-22T06:41:12.166Z,18.97
2023-08-22T06:43:38.657Z,19.06
2023-08-22T06:46:05.209Z,19.18
2023-08-22T06:48:41.592Z,19.19
2023-08-22T06:51:09.727Z,19.48
2023-08-22T06:53:36.203Z,19.63
2023-08-22T06:56:02.810Z,19.64
2023-08-22T06:58:29.363Z,19.78
2023-08-22T07:00:55.985Z,19.98
2023-08-22T07:03:22.615Z,20.02
2023-08-22T07:05:55.936Z,20.11
2023-08-22T07:08:22.476Z,20.32
2023-08-22T07:10:49.117Z,20.38
2023-08-22T07:13:15.797Z,20.41
2023-08-22T07:15:42.473Z,20.69
2023-08-22T07:18:09.127Z,20.72
2023-08-22T07:20:35.684Z,20.89
2023-08-22T07:23:02.207Z,21.02
2023-08-22T07:25:29.108Z,21.17
2023-08-22T07:27:56.055Z,21.44
2023-08-22T07:30:22.573Z,21.56
2023-08-22T07:32:49.112Z,21.71
2023-08-22T07:35:15.813Z,21.88
2023-08-22T07:37:42.367Z,22.00
2023-08-22T07:40:09.787Z,22.28
2023-08-22T07:42:36.675Z,22.64
2023-08-22T07:45:05.050Z,23.41
2023-08-22T07:47:31.766Z,24.71
2023-08-22T07:49:58.382Z,26.69
2023-08-22T07:52:24.902Z,28.44
2023-08-22T07:54:51.521Z,29.78
2023-08-22T07:57:19.598Z,30.92
2023-08-22T07:59:46.285Z,31.96
2023-08-22T08:02:12.898Z,32.88
2023-08-22T08:04:39.462Z,33.78
2023-08-22T08:07:05.978Z,34.47
2023-08-22T08:09:35.895Z,35.11
2023-08-22T08:12:04.503Z,35.69
2023-08-22T08:14:30.950Z,36.38
2023-08-22T08:16:57.501Z,36.98
2023-08-22T08:19:27.036Z,37.43
2023-08-22T08:21:54.216Z,37.90
2023-08-22T08:24:20.809Z,38.22
2023-08-22T08:26:47.361Z,38.72
2023-08-22T08:29:13.846Z,38.95
2023-08-22T08:31:40.366Z,39.32
2023-08-22T08:34:08.024Z,39.72
2023-08-22T08:36:34.536Z,39.90
2023-08-22T08:39:01.110Z,40.39
2023-08-22T08:41:27.970Z,40.70
2023-08-22T08:43:54.505Z,41.00
2023-08-22T08:46:21.122Z,41.30
2023-08-22T08:48:47.871Z,41.45
2023-08-22T08:51:14.456Z,41.81
2023-08-22T08:53:41.138Z,42.11
2023-08-22T08:56:11.168Z,42.22
2023-08-22T08:58:39.339Z,42.45
2023-08-22T09:01:06.355Z,42.61
2023-08-22T09:03:32.841Z,42.76
2023-08-22T09:05:59.912Z,43.02
2023-08-22T09:08:26.512Z,43.33
2023-08-22T09:10:53.822Z,43.52
2023-08-22T09:13:33.289Z,43.60
2023-08-22T09:16:05.303Z,42.68
2023-08-22T09:18:33.984Z,41.02
2023-08-22T09:21:05.205Z,39.83
2023-08-22T09:23:32.961Z,38.64
2023-08-22T09:26:03.015Z,37.96
2023-08-22T09:28:29.591Z,37.16
2023-08-22T09:30:56.150Z,36.46
2023-08-22T09:33:22.644Z,35.97
2023-08-22T09:35:49.412Z,35.52
2023-08-22T09:38:15.962Z,35.17
2023-08-22T09:40:53.274Z,34.64
2023-08-22T09:43:20.646Z,34.44
2023-08-22T09:45:47.342Z,34.14
2023-08-22T09:48:17.223Z,33.96
2023-08-22T09:50:44.120Z,33.82
2023-08-22T09:53:11.019Z,33.30
2023-08-22T09:55:37.552Z,33.22
2023-08-22T09:58:05.581Z,33.06
2023-08-22T10:00:32.377Z,32.95
2023-08-22T10:02:59.179Z,32.70
2023-08-22T10:05:25.784Z,32.65
2023-08-22T10:07:52.318Z,32.58
2023-08-22T10:10:18.897Z,32.34
2023-08-22T10:12:45.442Z,32.25
2023-08-22T10:15:12.104Z,32.16
2023-08-22T10:17:39.793Z,32.09
2023-08-22T10:20:06.812Z,31.91
2023-08-22T10:22:34.208Z,31.76
2023-08-22T10:25:08.100Z,31.63
2023-08-22T10:27:37.704Z,31.39
2023-08-22T11:10:40.482Z,29.90
2023-08-22T11:13:08.911Z,29.82
2023-08-22T11:15:35.689Z,29.76
2023-08-22T11:18:02.253Z,29.73
2023-08-22T11:20:28.771Z,29.66
2023-08-22T11:22:55.429Z,29.61
2023-08-22T11:25:25.968Z,29.62
2023-08-22T11:27:52.526Z,29.64
2023-08-22T11:30:20.015Z,29.57
2023-08-22T11:32:46.821Z,29.56
2023-08-22T11:35:13.623Z,29.51
2023-08-22T11:37:43.420Z,29.49
2023-08-22T11:40:15.541Z,29.42
2023-08-22T11:42:42.714Z,29.35
2023-08-22T11:45:11.377Z,29.31
2023-08-22T11:47:57.688Z,29.25
2023-08-22T11:50:25.912Z,29.16
2023-08-22T11:53:08.807Z,29.09
2023-08-22T11:55:36.459Z,29.05
2023-08-22T11:58:06.848Z,29.02
2023-08-22T12:00:34.009Z,29.03
2023-08-22T12:03:02.485Z,29.00
2023-08-22T12:05:35.653Z,29.02
2023-08-22T12:08:16.879Z,28.99
2023-08-22T12:10:50.618Z,28.90
2023-08-22T12:13:21.296Z,28.87
2023-08-22T12:15:48.111Z,28.83
2023-08-22T12:18:14.876Z,28.82
2023-08-22T12:20:43.049Z,28.75
2023-08-22T12:23:10.860Z,28.75
2023-08-22T12:25:38.595Z,28.74
2023-08-22T12:28:05.787Z,28.72
2023-08-22T12:30:34.747Z,28.74
2023-08-22T12:33:03.995Z,28.76
2023-08-22T12:35:32.079Z,28.73
2023-08-22T12:37:58.947Z,28.67
2023-08-22T12:40:25.529Z,28.63
2023-08-22T12:42:52.173Z,28.64
2023-08-22T12:45:18.835Z,28.65
2023-08-22T12:47:45.744Z,28.69
2023-08-22T12:50:12.714Z,28.70
2023-08-22T12:52:39.225Z,28.68
2023-08-22T12:55:11.139Z,28.73
2023-08-22T12:57:41.981Z,28.76
2023-08-22T13:00:09.867Z,28.74
2023-08-22T13:02:43.028Z,28.60
2023-08-22T13:05:09.824Z,28.57
2023-08-22T13:07:36.447Z,28.55
2023-08-22T13:10:05.129Z,28.54
2023-08-22T13:12:31.549Z,28.58
2023-08-22T13:14:58.099Z,28.60
2023-08-22T13:17:24.694Z,28.62
2023-08-22T13:19:51.212Z,28.64
2023-08-22T13:22:17.760Z,28.62
2023-08-22T13:24:44.440Z,28.53
2023-08-22T13:27:10.945Z,28.47
2023-08-22T13:29:37.564Z,28.46
2023-08-22T13:32:04.566Z,28.46
2023-08-22T13:34:31.121Z,28.44
2023-08-22T13:36:57.664Z,28.41
2023-08-22T13:39:24.137Z,28.42
2023-08-22T13:41:50.710Z,28.42
2023-08-22T13:44:17.242Z,28.36
2023-08-22T13:46:44.054Z,28.31
2023-08-22T13:49:10.632Z,28.27
2023-08-22T13:51:37.135Z,28.23
2023-08-22T13:54:04.350Z,28.20
2023-08-22T13:56:31.758Z,28.19
2023-08-22T13:58:59.212Z,28.19
2023-08-22T14:01:27.391Z,28.15
2023-08-22T14:03:54.090Z,28.12
2023-08-22T14:06:20.726Z,28.10
2023-08-22T14:08:48.811Z,28.08
2023-08-22T14:11:15.623Z,28.05
2023-08-22T14:13:43.727Z,28.05
2023-08-22T14:16:10.391Z,28.03
2023-08-22T14:18:36.974Z,28.02
2023-08-22T14:21:03.613Z,28.00
2023-08-22T14:23:30.357Z,28.00
2023-08-22T14:25:56.925Z,27.98
2023-08-22T14:28:23.541Z,27.95
2023-08-22T14:30:50.150Z,27.90
2023-08-22T14:33:16.823Z,27.89
2023-08-22T14:35:43.530Z,27.89
2023-08-22T14:38:10.272Z,27.89
2023-08-22T14:40:37.136Z,27.85
2023-08-22T14:43:03.774Z,27.83
2023-08-22T14:45:30.297Z,27.81
2023-08-22T14:47:56.821Z,27.82
2023-08-22T14:50:23.385Z,27.80
2023-08-22T14:52:49.942Z,27.79
2023-08-22T14:55:16.629Z,27.77
2023-08-22T14:57:43.333Z,27.72
2023-08-22T15:00:11.214Z,27.70
2023-08-22T15:02:37.940Z,27.70
2023-08-22T15:05:04.989Z,27.68
2023-08-22T15:07:31.556Z,27.67
2023-08-22T15:09:58.446Z,27.63
2023-08-22T15:12:25.187Z,27.59
2023-08-22T15:14:51.684Z,27.57
2023-08-22T15:17:18.272Z,27.55
2023-08-22T15:19:44.977Z,27.52
2023-08-22T15:22:11.561Z,27.53
2023-08-22T15:24:38.093Z,27.49
2023-08-22T15:27:04.586Z,27.51
2023-08-22T15:29:31.083Z,27.50
2023-08-22T15:31:57.809Z,27.51
2023-08-22T15:34:25.406Z,27.49
2023-08-22T15:36:52.296Z,27.48
2023-08-22T15:39:19.272Z,27.46
2023-08-22T15:41:45.823Z,27.44
2023-08-22T15:44:12.316Z,27.40
2023-08-22T15:46:38.894Z,27.39
2023-08-22T15:49:05.554Z,27.37
2023-08-22T15:51:33.022Z,27.35
2023-08-22T15:53:59.562Z,27.33
2023-08-22T15:56:28.847Z,27.29
2023-08-22T15:58:55.854Z,27.26
2023-08-22T16:01:22.571Z,27.20
2023-08-22T16:03:49.251Z,27.19
2023-08-22T16:06:16.046Z,27.18
2023-08-22T16:08:42.525Z,27.18
2023-08-22T16:11:09.114Z,27.19
2023-08-22T16:13:35.635Z,27.20
2023-08-22T16:16:02.177Z,27.20
2023-08-22T16:18:28.691Z,27.19
2023-08-22T16:20:55.212Z,27.19
2023-08-22T16:23:22.890Z,27.17
2023-08-22T16:25:50.327Z,27.15
2023-08-22T16:28:16.933Z,27.11
2023-08-22T16:30:43.655Z,27.10
2023-08-22T16:33:10.435Z,27.07
2023-08-22T16:35:37.137Z,27.03
2023-08-22T16:38:04.386Z,26.97
2023-08-22T16:40:31.095Z,26.96
2023-08-22T16:42:57.682Z,26.91
2023-08-22T16:45:24.195Z,26.86
2023-08-22T16:47:51.061Z,26.86
2023-08-22T16:50:18.016Z,26.85
2023-08-22T16:52:44.504Z,26.80
2023-08-22T16:55:12.855Z,26.77
2023-08-22T16:57:40.198Z,26.75
2023-08-22T17:00:13.765Z,26.69
2023-08-22T17:02:40.464Z,26.68
2023-08-22T17:05:07.409Z,26.64
2023-08-22T17:07:33.920Z,26.62
2023-08-22T17:10:00.468Z,26.57
2023-08-22T17:12:27.001Z,26.56
2023-08-22T17:14:53.566Z,26.54
2023-08-22T17:17:20.098Z,26.50
2023-08-22T17:19:46.719Z,26.48
2023-08-22T17:22:13.353Z,26.45
2023-08-22T17:24:39.982Z,26.43
2023-08-22T17:27:06.478Z,26.37
2023-08-22T17:29:33.019Z,26.33
2023-08-22T17:32:00.340Z,26.30
2023-08-22T17:34:26.823Z,26.25
2023-08-22T17:36:53.523Z,26.21
2023-08-22T17:39:20.055Z,26.15
2023-08-22T17:41:46.608Z,26.11
2023-08-22T17:44:13.164Z,26.05
2023-08-22T17:46:40.456Z,25.99
2023-08-22T17:49:06.992Z,25.92
2023-08-22T17:51:33.724Z,25.84
2023-08-22T17:54:00.675Z,25.78
2023-08-22T17:56:27.133Z,25.71
2023-08-22T17:58:53.724Z,25.63
2023-08-22T18:01:20.429Z,25.54
2023-08-22T18:03:47.221Z,25.44
2023-08-22T18:06:13.843Z,25.36
2023-08-22T18:08:41.901Z,25.25
2023-08-22T18:11:27.228Z,25.14
2023-08-22T18:13:53.919Z,24.97
2023-08-22T18:16:20.735Z,24.75
2023-08-22T18:18:47.284Z,24.64
2023-08-22T18:21:14.225Z,24.64
2023-08-22T18:23:41.100Z,24.58
2023-08-22T18:26:09.048Z,24.38
2023-08-22T18:28:35.825Z,24.36
2023-08-22T18:31:03.649Z,24.09
2023-08-22T18:33:30.437Z,23.98
2023-08-22T18:35:57.032Z,23.90
2023-08-22T18:38:23.595Z,23.85
2023-08-22T18:40:54.033Z,23.87
2023-08-22T18:43:20.858Z,23.64
2023-08-22T18:45:47.895Z,23.62
2023-08-22T18:48:14.547Z,23.65
2023-08-22T18:50:41.202Z,23.39
2023-08-22T18:53:07.766Z,23.39
2023-08-22T18:55:34.931Z,23.30
2023-08-22T18:58:01.882Z,23.23
2023-08-22T19:00:28.595Z,22.95
2023-08-22T19:02:56.690Z,23.04
2023-08-22T19:05:24.384Z,22.74
2023-08-22T19:07:50.927Z,23.00
2023-08-22T19:10:17.515Z,22.92
2023-08-22T19:12:44.087Z,22.80
2023-08-22T19:15:10.788Z,22.74
2023-08-22T19:17:37.394Z,22.79
2023-08-22T19:20:04.827Z,22.63
2023-08-22T19:22:31.349Z,22.62
2023-08-22T19:24:57.862Z,22.57
2023-08-22T19:27:26.496Z,22.51
2023-08-22T19:29:53.100Z,22.45
2023-08-22T19:32:31.771Z,22.30
2023-08-22T19:35:06.482Z,22.23
2023-08-22T19:37:33.075Z,22.15
2023-08-22T19:39:59.575Z,22.21
2023-08-22T19:42:26.235Z,22.17
2023-08-22T19:44:55.968Z,21.97
2023-08-22T19:47:22.909Z,21.86
2023-08-22T19:49:50.306Z,21.95
2023-08-22T19:52:17.053Z,21.94
2023-08-22T19:54:43.765Z,21.77
2023-08-22T19:57:10.609Z,21.78
2023-08-22T19:59:39.901Z,21.56
2023-08-22T20:02:06.479Z,21.47
2023-08-22T20:04:33.034Z,21.43
2023-08-22T20:06:59.556Z,21.43
2023-08-22T20:09:26.211Z,21.39
2023-08-22T20:11:52.877Z,21.31
2023-08-22T20:14:19.415Z,21.18
2023-08-22T20:16:46.083Z,21.17
2023-08-22T20:19:13.251Z,21.19
2023-08-22T20:21:39.831Z,21.21
2023-08-22T20:24:06.502Z,21.07
2023-08-22T20:26:39.788Z,21.00
2023-08-22T20:29:07.123Z,20.98
2023-08-22T20:31:35.060Z,20.92
2023-08-22T20:34:01.609Z,20.86
2023-08-22T20:36:28.167Z,20.89
2023-08-22T20:38:57.147Z,20.89
2023-08-22T20:41:23.702Z,20.93
2023-08-22T20:43:50.188Z,20.91
2023-08-22T20:46:16.729Z,20.79
2023-08-22T20:48:43.339Z,20.68
2023-08-22T20:51:09.906Z,20.86
2023-08-22T20:53:36.392Z,20.90
2023-08-22T20:56:02.873Z,20.83
2023-08-22T20:58:29.406Z,20.75
2023-08-22T21:00:55.924Z,20.76
2023-08-22T21:03:22.500Z,20.50
2023-08-22T21:05:49.843Z,20.72
2023-08-22T21:08:16.343Z,20.67
2023-08-22T21:10:43.311Z,20.58
2023-08-22T21:13:09.790Z,20.56
2023-08-22T21:15:36.299Z,20.69
2023-08-22T21:18:02.920Z,20.47
2023-08-22T21:20:29.464Z,20.44
2023-08-22T21:22:56.073Z,20.47
2023-08-22T21:25:22.550Z,20.45
2023-08-22T21:27:49.038Z,20.24
2023-08-22T21:30:15.578Z,20.39
2023-08-22T21:32:42.139Z,20.47
2023-08-22T21:35:09.042Z,20.38
2023-08-22T21:37:35.550Z,20.26
2023-08-22T21:40:02.102Z,20.34
2023-08-22T21:42:28.690Z,20.31
2023-08-22T21:44:55.294Z,20.15
2023-08-22T21:47:21.815Z,20.12
2023-08-22T21:49:48.409Z,20.02
2023-08-22T21:52:15.077Z,20.00
2023-08-22T21:54:41.754Z,20.03
2023-08-22T21:57:08.248Z,19.95
2023-08-22T21:59:34.826Z,19.85
2023-08-22T22:02:01.415Z,19.82
2023-08-22T22:04:27.973Z,19.82
2023-08-22T22:06:54.472Z,19.65
2023-08-22T22:09:20.986Z,19.80
2023-08-22T22:11:47.530Z,19.69
2023-08-22T22:14:14.116Z,19.66
2023-08-22T22:16:45.537Z,19.66
2023-08-22T22:19:12.829Z,19.50
2023-08-22T22:21:39.452Z,19.54
2023-08-22T22:24:06.207Z,19.59
2023-08-22T22:26:32.750Z,19.45
2023-08-22T22:28:59.279Z,19.45
2023-08-22T22:31:25.909Z,19.49
2023-08-22T22:33:52.433Z,19.48
2023-08-22T22:36:18.932Z,19.19
2023-08-22T22:38:45.807Z,19.34
2023-08-22T22:41:12.351Z,19.27
2023-08-22T22:43:38.893Z,19.37
2023-08-22T22:46:05.432Z,19.31
2023-08-22T22:48:31.970Z,19.17
2023-08-22T22:50:58.501Z,19.14
2023-08-22T22:53:25.062Z,19.00
2023-08-22T22:55:51.683Z,19.03
2023-08-22T22:58:18.174Z,18.90
2023-08-22T23:00:44.749Z,18.97
2023-08-22T23:03:11.402Z,19.08
2023-08-22T23:05:38.013Z,19.00
2023-08-22T23:08:04.880Z,19.01
2023-08-22T23:10:31.416Z,19.03
2023-08-22T23:12:58.463Z,18.96
2023-08-22T23:15:25.002Z,19.01
2023-08-22T23:17:51.932Z,19.02
2023-08-22T23:20:19.918Z,19.00
2023-08-22T23:22:47.353Z,19.03
2023-08-22T23:25:14.047Z,18.99
2023-08-22T23:27:40.654Z,18.69
2023-08-22T23:30:08.768Z,18.85
2023-08-22T23:32:35.448Z,18.86
2023-08-22T23:35:06.384Z,18.92
2023-08-22T23:37:33.050Z,18.94
2023-08-22T23:39:59.554Z,18.81
2023-08-22T23:42:26.194Z,18.86
2023-08-22T23:44:52.671Z,18.69
2023-08-22T23:47:19.166Z,18.74
2023-08-22T23:49:45.703Z,18.72
2023-08-22T23:52:12.187Z,18.66
2023-08-22T23:54:38.711Z,18.58
2023-08-22T23:57:05.365Z,18.49
2023-08-22T23:59:32.457Z,18.48
